sensor_id;sensor_type;location;lat;lon;timestamp;pressure;altitude;pressure_sealevel;temperature;humidity
61676;BME280;47574;52.090;5.244;2023-03-03T00:02:31;102508.99999999999;;;8.82;51.79
61676;BME280;47574;52.090;5.244;2023-03-03T00:04:07;102513.00000000001;;;8.97;51.54
61676;BME280;47574;52.090;5.244;2023-03-03T00:05:43;102514.00000000001;;;8.89;51.66
61676;BME280;47574;52.090;5.244;2023-03-03T00:08:56;102515.00000000001;;;8.73;52.0
61676;BME280;47574;52.090;5.244;2023-03-03T00:10:32;102507.0;;;8.86;51.67
61676;BME280;47574;52.090;5.244;2023-03-03T00:12:20;102508.0;;;8.83;51.91
61676;BME280;47574;52.090;5.244;2023-03-03T00:13:57;102513.00000000001;;;8.89;51.75
61676;BME280;47574;52.090;5.244;2023-03-03T00:17:16;102508.99999999999;;;8.64;52.25
61676;BME280;47574;52.090;5.244;2023-03-03T00:18:56;102508.0;;;8.67;52.2
61676;BME280;47574;52.090;5.244;2023-03-03T00:20:35;102511.99999999999;;;8.67;52.29
61676;BME280;47574;52.090;5.244;2023-03-03T00:24:16;102508.0;;;8.73;52.16
61676;BME280;47574;52.090;5.244;2023-03-03T00:25:55;102508.0;;;8.73;52.11
61676;BME280;47574;52.090;5.244;2023-03-03T00:27:34;102514.00000000001;;;8.99;51.61
61676;BME280;47574;52.090;5.244;2023-03-03T00:29:29;102504.0;;;8.72;52.21
61676;BME280;47574;52.090;5.244;2023-03-03T00:31:14;102507.0;;;8.8;51.99
61676;BME280;47574;52.090;5.244;2023-03-03T00:32:52;102514.00000000001;;;8.77;52.18
61676;BME280;47574;52.090;5.244;2023-03-03T00:36:21;102514.00000000001;;;8.71;52.19
61676;BME280;47574;52.090;5.244;2023-03-03T00:38:13;102515.00000000001;;;8.8;52.09
61676;BME280;47574;52.090;5.244;2023-03-03T00:39:52;102521.0;;;8.75;52.17
61676;BME280;47574;52.090;5.244;2023-03-03T00:41:29;102519.0;;;8.66;52.51
61676;BME280;47574;52.090;5.244;2023-03-03T00:44:55;102521.0;;;8.59;52.69
61676;BME280;47574;52.090;5.244;2023-03-03T00:46:35;102520.0;;;8.6;52.59
61676;BME280;47574;52.090;5.244;2023-03-03T00:48:20;102519.0;;;8.56;52.73
61676;BME280;47574;52.090;5.244;2023-03-03T00:50:20;102518.0;;;8.5;52.8
61676;BME280;47574;52.090;5.244;2023-03-03T00:52:00;102526.0;;;8.6;52.52
61676;BME280;47574;52.090;5.244;2023-03-03T00:55:12;102521.0;;;8.64;52.51
61676;BME280;47574;52.090;5.244;2023-03-03T00:56:48;102523.0;;;8.59;52.54
61676;BME280;47574;52.090;5.244;2023-03-03T00:58:25;102529.0;;;8.61;52.67
61676;BME280;47574;52.090;5.244;2023-03-03T01:00:03;102530.0;;;8.64;52.61
61676;BME280;47574;52.090;5.244;2023-03-03T01:03:18;102532.0;;;8.48;53.04
61676;BME280;47574;52.090;5.244;2023-03-03T01:04:55;102536.99999999999;;;8.19;53.81
61676;BME280;47574;52.090;5.244;2023-03-03T01:06:31;102531.0;;;8.45;53.17
61676;BME280;47574;52.090;5.244;2023-03-03T01:09:44;102533.0;;;8.39;53.25
61676;BME280;47574;52.090;5.244;2023-03-03T01:11:23;102538.00000000001;;;8.34;53.46
61676;BME280;47574;52.090;5.244;2023-03-03T01:13:01;102534.99999999999;;;8.31;53.49
61676;BME280;47574;52.090;5.244;2023-03-03T01:14:38;102542.0;;;8.17;54.02
61676;BME280;47574;52.090;5.244;2023-03-03T01:17:53;102536.99999999999;;;8.31;53.75
61676;BME280;47574;52.090;5.244;2023-03-03T01:19:29;102539.00000000001;;;8.3;53.92
61676;BME280;47574;52.090;5.244;2023-03-03T01:21:05;102539.00000000001;;;8.3;53.81
61676;BME280;47574;52.090;5.244;2023-03-03T01:24:18;102531.0;;;8.33;53.59
61676;BME280;47574;52.090;5.244;2023-03-03T01:25:55;102526.0;;;8.23;53.81
61676;BME280;47574;52.090;5.244;2023-03-03T01:27:34;102532.0;;;8.28;53.81
61676;BME280;47574;52.090;5.244;2023-03-03T01:30:46;102533.0;;;8.2;54.13
61676;BME280;47574;52.090;5.244;2023-03-03T01:32:22;102533.0;;;8.31;53.74
61676;BME280;47574;52.090;5.244;2023-03-03T01:33:58;102543.0;;;8.38;53.73
61676;BME280;47574;52.090;5.244;2023-03-03T01:35:35;102543.0;;;8.23;53.91
61676;BME280;47574;52.090;5.244;2023-03-03T01:38:47;102547.0;;;8.39;53.49
61676;BME280;47574;52.090;5.244;2023-03-03T01:40:27;102543.0;;;8.44;53.2
61676;BME280;47574;52.090;5.244;2023-03-03T01:42:05;102547.0;;;8.03;53.84
61676;BME280;47574;52.090;5.244;2023-03-03T01:45:22;102544.0;;;8.2;53.56
61676;BME280;47574;52.090;5.244;2023-03-03T01:47:03;102548.0;;;8.16;53.69
61676;BME280;47574;52.090;5.244;2023-03-03T01:48:43;102551.0;;;8.01;53.89
61676;BME280;47574;52.090;5.244;2023-03-03T01:50:29;102549.0;;;7.97;54.03
61676;BME280;47574;52.090;5.244;2023-03-03T01:53:52;102553.0;;;8.1;53.66
61676;BME280;47574;52.090;5.244;2023-03-03T01:55:34;102554.0;;;8.06;53.68
61676;BME280;47574;52.090;5.244;2023-03-03T01:57:13;102553.0;;;8.01;53.78
61676;BME280;47574;52.090;5.244;2023-03-03T01:58:58;102547.0;;;7.98;53.84
61676;BME280;47574;52.090;5.244;2023-03-03T02:00:38;102545.0;;;7.68;54.6
61676;BME280;47574;52.090;5.244;2023-03-03T02:03:52;102551.0;;;7.64;54.92
61676;BME280;47574;52.090;5.244;2023-03-03T02:05:28;102550.0;;;7.87;54.2
61676;BME280;47574;52.090;5.244;2023-03-03T02:07:06;102550.0;;;7.85;54.1
61676;BME280;47574;52.090;5.244;2023-03-03T02:10:29;102548.0;;;8.03;53.85
61676;BME280;47574;52.090;5.244;2023-03-03T02:12:07;102549.0;;;8.05;53.6
61676;BME280;47574;52.090;5.244;2023-03-03T02:13:47;102548.0;;;7.79;54.23
61676;BME280;47574;52.090;5.244;2023-03-03T02:15:25;102554.0;;;7.77;54.31
61676;BME280;47574;52.090;5.244;2023-03-03T02:20:19;102552.0;;;7.84;54.36
61676;BME280;47574;52.090;5.244;2023-03-03T02:22:01;102549.0;;;7.79;54.33
61676;BME280;47574;52.090;5.244;2023-03-03T02:23:42;102547.0;;;7.9;54.07
61676;BME280;47574;52.090;5.244;2023-03-03T02:27:09;102549.0;;;7.79;54.43
61676;BME280;47574;52.090;5.244;2023-03-03T02:28:45;102548.0;;;7.81;54.24
61676;BME280;47574;52.090;5.244;2023-03-03T02:30:22;102550.0;;;7.75;54.35
61676;BME280;47574;52.090;5.244;2023-03-03T02:32:00;102548.0;;;7.73;54.43
61676;BME280;47574;52.090;5.244;2023-03-03T02:35:33;102549.0;;;7.64;54.75
61676;BME280;47574;52.090;5.244;2023-03-03T02:37:09;102551.0;;;7.84;54.36
61676;BME280;47574;52.090;5.244;2023-03-03T02:38:49;102550.0;;;7.65;54.67
61676;BME280;47574;52.090;5.244;2023-03-03T02:40:33;102552.0;;;7.76;54.46
61676;BME280;47574;52.090;5.244;2023-03-03T02:43:58;102547.0;;;7.58;54.98
61676;BME280;47574;52.090;5.244;2023-03-03T02:45:41;102547.0;;;7.72;54.75
61676;BME280;47574;52.090;5.244;2023-03-03T02:47:18;102547.0;;;7.96;54.25
61676;BME280;47574;52.090;5.244;2023-03-03T02:48:54;102551.0;;;7.78;54.72
61676;BME280;47574;52.090;5.244;2023-03-03T02:52:08;102551.0;;;7.88;54.69
61676;BME280;47574;52.090;5.244;2023-03-03T02:53:45;102553.0;;;7.98;54.48
61676;BME280;47574;52.090;5.244;2023-03-03T02:55:22;102548.0;;;8.19;53.93
61676;BME280;47574;52.090;5.244;2023-03-03T02:58:36;102547.0;;;8.05;54.15
61676;BME280;47574;52.090;5.244;2023-03-03T03:00:13;102547.0;;;8.06;54.14
61676;BME280;47574;52.090;5.244;2023-03-03T03:01:50;102553.0;;;7.87;54.69
61676;BME280;47574;52.090;5.244;2023-03-03T03:03:27;102552.0;;;7.87;54.56
61676;BME280;47574;52.090;5.244;2023-03-03T03:06:40;102552.0;;;7.99;54.37
61676;BME280;47574;52.090;5.244;2023-03-03T03:08:17;102554.0;;;7.83;54.68
61676;BME280;47574;52.090;5.244;2023-03-03T03:09:53;102550.0;;;8.03;54.4
61676;BME280;47574;52.090;5.244;2023-03-03T03:13:06;102549.0;;;8.13;54.16
61676;BME280;47574;52.090;5.244;2023-03-03T03:14:42;102554.0;;;8.01;54.26
61676;BME280;47574;52.090;5.244;2023-03-03T03:16:18;102550.0;;;7.99;54.27
61676;BME280;47574;52.090;5.244;2023-03-03T03:19:30;102553.0;;;7.76;54.73
61676;BME280;47574;52.090;5.244;2023-03-03T03:21:08;102550.0;;;8.15;53.62
61676;BME280;47574;52.090;5.244;2023-03-03T03:22:46;102551.0;;;7.73;54.54
61676;BME280;47574;52.090;5.244;2023-03-03T03:24:21;102553.0;;;7.86;54.61
61676;BME280;47574;52.090;5.244;2023-03-03T03:27:34;102545.0;;;8.34;53.39
61676;BME280;47574;52.090;5.244;2023-03-03T03:29:10;102547.0;;;8.2;53.53
61676;BME280;47574;52.090;5.244;2023-03-03T03:30:46;102553.0;;;8.13;53.69
61676;BME280;47574;52.090;5.244;2023-03-03T03:33:57;102551.0;;;8.08;53.75
61676;BME280;47574;52.090;5.244;2023-03-03T03:35:34;102552.0;;;8.06;53.93
61676;BME280;47574;52.090;5.244;2023-03-03T03:37:11;102550.0;;;8.11;53.74
61676;BME280;47574;52.090;5.244;2023-03-03T03:40:23;102550.0;;;8.13;53.75
61676;BME280;47574;52.090;5.244;2023-03-03T03:41:59;102553.0;;;8.09;53.82
61676;BME280;47574;52.090;5.244;2023-03-03T03:43:35;102553.0;;;8.06;54.03
61676;BME280;47574;52.090;5.244;2023-03-03T03:45:12;102551.0;;;8.19;53.77
61676;BME280;47574;52.090;5.244;2023-03-03T03:48:25;102554.0;;;8.08;53.92
61676;BME280;47574;52.090;5.244;2023-03-03T03:50:02;102557.0;;;8.01;54.29
61676;BME280;47574;52.090;5.244;2023-03-03T03:51:38;102557.0;;;8.13;53.99
61676;BME280;47574;52.090;5.244;2023-03-03T03:54:51;102563.00000000001;;;8.14;53.93
61676;BME280;47574;52.090;5.244;2023-03-03T03:56:27;102558.99999999999;;;8.0;54.25
61676;BME280;47574;52.090;5.244;2023-03-03T03:58:03;102561.99999999999;;;8.06;54.06
61676;BME280;47574;52.090;5.244;2023-03-03T04:01:17;102559.99999999999;;;8.19;53.86
61676;BME280;47574;52.090;5.244;2023-03-03T04:02:53;102564.00000000001;;;8.09;54.02
61676;BME280;47574;52.090;5.244;2023-03-03T04:04:29;102567.0;;;8.23;53.75
61676;BME280;47574;52.090;5.244;2023-03-03T04:07:41;102567.0;;;8.18;53.71
61676;BME280;47574;52.090;5.244;2023-03-03T04:09:17;102569.0;;;8.14;53.88
61676;BME280;47574;52.090;5.244;2023-03-03T04:10:54;102567.0;;;8.17;53.96
61676;BME280;47574;52.090;5.244;2023-03-03T04:12:30;102567.0;;;8.11;53.93
61676;BME280;47574;52.090;5.244;2023-03-03T04:15:43;102567.0;;;8.09;54.11
61676;BME280;47574;52.090;5.244;2023-03-03T04:17:20;102571.0;;;8.1;54.13
61676;BME280;47574;52.090;5.244;2023-03-03T04:18:57;102568.0;;;8.23;53.86
61676;BME280;47574;52.090;5.244;2023-03-03T04:22:09;102568.0;;;8.2;54.11
61676;BME280;47574;52.090;5.244;2023-03-03T04:23:45;102568.0;;;8.27;53.87
61676;BME280;47574;52.090;5.244;2023-03-03T04:25:22;102567.0;;;8.34;53.98
61676;BME280;47574;52.090;5.244;2023-03-03T04:28:35;102567.0;;;8.27;53.89
61676;BME280;47574;52.090;5.244;2023-03-03T04:30:13;102566.00000000001;;;8.24;54.07
61676;BME280;47574;52.090;5.244;2023-03-03T04:31:50;102569.0;;;8.08;54.59
61676;BME280;47574;52.090;5.244;2023-03-03T04:33:26;102569.0;;;8.24;54.31
61676;BME280;47574;52.090;5.244;2023-03-03T04:36:41;102570.0;;;8.3;54.17
61676;BME280;47574;52.090;5.244;2023-03-03T04:38:17;102570.0;;;8.19;54.56
61676;BME280;47574;52.090;5.244;2023-03-03T04:39:53;102572.0;;;8.08;54.74
61676;BME280;47574;52.090;5.244;2023-03-03T04:43:05;102578.0;;;8.09;54.96
61676;BME280;47574;52.090;5.244;2023-03-03T04:44:41;102577.0;;;8.1;54.92
61676;BME280;47574;52.090;5.244;2023-03-03T04:46:17;102579.0;;;8.39;54.32
61676;BME280;47574;52.090;5.244;2023-03-03T04:49:31;102576.0;;;8.05;55.18
61676;BME280;47574;52.090;5.244;2023-03-03T04:51:07;102574.0;;;8.09;55.46
61676;BME280;47574;52.090;5.244;2023-03-03T04:52:43;102577.0;;;8.16;55.02
61676;BME280;47574;52.090;5.244;2023-03-03T04:54:19;102578.0;;;8.35;54.65
61676;BME280;47574;52.090;5.244;2023-03-03T04:57:31;102578.0;;;8.4;54.5
61676;BME280;47574;52.090;5.244;2023-03-03T04:59:06;102576.0;;;8.48;54.29
61676;BME280;47574;52.090;5.244;2023-03-03T05:00:43;102576.0;;;8.43;54.34
61676;BME280;47574;52.090;5.244;2023-03-03T05:03:55;102580.0;;;8.58;54.07
61676;BME280;47574;52.090;5.244;2023-03-03T05:05:31;102582.0;;;8.23;54.88
61676;BME280;47574;52.090;5.244;2023-03-03T05:07:07;102583.0;;;8.33;54.87
61676;BME280;47574;52.090;5.244;2023-03-03T05:10:19;102575.0;;;8.56;54.39
61676;BME280;47574;52.090;5.244;2023-03-03T05:11:55;102578.0;;;8.43;54.69
61676;BME280;47574;52.090;5.244;2023-03-03T05:13:31;102572.0;;;8.56;54.42
61676;BME280;47574;52.090;5.244;2023-03-03T05:16:47;102570.0;;;8.6;54.38
61676;BME280;47574;52.090;5.244;2023-03-03T05:18:24;102566.00000000001;;;8.64;54.42
61676;BME280;47574;52.090;5.244;2023-03-03T05:20:02;102567.0;;;8.44;54.98
61676;BME280;47574;52.090;5.244;2023-03-03T05:21:38;102568.0;;;8.42;54.89
61676;BME280;47574;52.090;5.244;2023-03-03T05:24:52;102569.0;;;8.5;54.85
61676;BME280;47574;52.090;5.244;2023-03-03T05:26:28;102569.0;;;8.51;54.77
61676;BME280;47574;52.090;5.244;2023-03-03T05:28:04;102569.0;;;8.59;54.62
61676;BME280;47574;52.090;5.244;2023-03-03T05:31:16;102569.0;;;8.59;54.74
61676;BME280;47574;52.090;5.244;2023-03-03T05:32:52;102569.0;;;8.67;54.58
61676;BME280;47574;52.090;5.244;2023-03-03T05:34:28;102568.0;;;8.39;55.2
61676;BME280;47574;52.090;5.244;2023-03-03T05:36:05;102570.0;;;8.52;55.11
61676;BME280;47574;52.090;5.244;2023-03-03T05:39:18;102567.0;;;8.5;55.3
61676;BME280;47574;52.090;5.244;2023-03-03T05:40:54;102567.0;;;8.64;54.84
61676;BME280;47574;52.090;5.244;2023-03-03T05:42:30;102569.0;;;8.66;54.93
61676;BME280;47574;52.090;5.244;2023-03-03T05:45:43;102571.0;;;8.83;54.62
61676;BME280;47574;52.090;5.244;2023-03-03T05:47:19;102572.0;;;8.73;54.81
61676;BME280;47574;52.090;5.244;2023-03-03T05:48:55;102574.0;;;8.53;55.35
61676;BME280;47574;52.090;5.244;2023-03-03T05:52:08;102576.0;;;8.66;55.16
61676;BME280;47574;52.090;5.244;2023-03-03T05:53:44;102575.0;;;8.81;54.8
61676;BME280;47574;52.090;5.244;2023-03-03T05:55:20;102579.0;;;8.67;55.14
61676;BME280;47574;52.090;5.244;2023-03-03T05:58:32;102575.0;;;8.81;54.97
61676;BME280;47574;52.090;5.244;2023-03-03T06:00:10;102576.0;;;8.82;54.95
61676;BME280;47574;52.090;5.244;2023-03-03T06:01:46;102579.0;;;8.81;55.07
61676;BME280;47574;52.090;5.244;2023-03-03T06:03:23;102575.0;;;8.98;54.65
61676;BME280;47574;52.090;5.244;2023-03-03T06:06:35;102579.0;;;8.8;55.18
61676;BME280;47574;52.090;5.244;2023-03-03T06:08:11;102578.0;;;8.75;55.33
61676;BME280;47574;52.090;5.244;2023-03-03T06:09:47;102579.0;;;8.67;55.59
61676;BME280;47574;52.090;5.244;2023-03-03T06:12:59;102581.0;;;8.83;55.36
61676;BME280;47574;52.090;5.244;2023-03-03T06:14:35;102586.99999999999;;;8.74;55.51
61676;BME280;47574;52.090;5.244;2023-03-03T06:16:12;102584.99999999999;;;8.69;55.72
61676;BME280;47574;52.090;5.244;2023-03-03T06:19:24;102592.0;;;8.73;55.86
61676;BME280;47574;52.090;5.244;2023-03-03T06:21:01;102592.0;;;8.76;55.82
61676;BME280;47574;52.090;5.244;2023-03-03T06:22:37;102594.0;;;8.73;56.03
61676;BME280;47574;52.090;5.244;2023-03-03T06:24:13;102596.0;;;8.67;56.12
61676;BME280;47574;52.090;5.244;2023-03-03T06:27:26;102602.0;;;8.58;56.37
61676;BME280;47574;52.090;5.244;2023-03-03T06:29:02;102601.0;;;8.74;55.97
61676;BME280;47574;52.090;5.244;2023-03-03T06:30:38;102603.0;;;8.81;55.89
61676;BME280;47574;52.090;5.244;2023-03-03T06:33:52;102608.0;;;8.48;56.8
61676;BME280;47574;52.090;5.244;2023-03-03T06:35:28;102603.0;;;8.73;56.24
61676;BME280;47574;52.090;5.244;2023-03-03T06:37:04;102601.0;;;8.83;56.05
61676;BME280;47574;52.090;5.244;2023-03-03T06:40:18;102603.0;;;8.67;56.38
61676;BME280;47574;52.090;5.244;2023-03-03T06:41:54;102604.0;;;8.84;56.16
61676;BME280;47574;52.090;5.244;2023-03-03T06:43:30;102604.0;;;8.69;56.47
61676;BME280;47574;52.090;5.244;2023-03-03T06:46:43;102608.99999999999;;;8.68;56.54
61676;BME280;47574;52.090;5.244;2023-03-03T06:48:19;102611.99999999999;;;8.84;56.18
61676;BME280;47574;52.090;5.244;2023-03-03T06:49:55;102613.00000000001;;;8.99;55.81
61676;BME280;47574;52.090;5.244;2023-03-03T06:51:33;102614.00000000001;;;9.01;55.77
61676;BME280;47574;52.090;5.244;2023-03-03T06:54:52;102619.0;;;8.99;55.92
61676;BME280;47574;52.090;5.244;2023-03-03T06:56:32;102622.0;;;8.97;56.01
61676;BME280;47574;52.090;5.244;2023-03-03T06:58:13;102625.0;;;8.59;56.84
61676;BME280;47574;52.090;5.244;2023-03-03T06:59:52;102630.0;;;9.02;55.96
61676;BME280;47574;52.090;5.244;2023-03-03T07:03:13;102624.0;;;8.93;56.11
61676;BME280;47574;52.090;5.244;2023-03-03T07:04:52;102630.0;;;8.94;56.17
61676;BME280;47574;52.090;5.244;2023-03-03T07:06:31;102630.0;;;8.64;56.91
61676;BME280;47574;52.090;5.244;2023-03-03T07:09:52;102631.0;;;8.83;56.66
61676;BME280;47574;52.090;5.244;2023-03-03T07:11:29;102632.0;;;9.06;56.03
61676;BME280;47574;52.090;5.244;2023-03-03T07:13:18;102641.00000000001;;;8.96;56.17
61676;BME280;47574;52.090;5.244;2023-03-03T07:15:01;102644.0;;;8.98;56.17
61676;BME280;47574;52.090;5.244;2023-03-03T07:16:50;102642.0;;;8.98;56.17
61676;BME280;47574;52.090;5.244;2023-03-03T07:20:18;102645.0;;;8.97;56.22
61676;BME280;47574;52.090;5.244;2023-03-03T07:21:55;102646.0;;;9.01;56.09
61676;BME280;47574;52.090;5.244;2023-03-03T07:23:37;102651.0;;;8.89;56.48
61676;BME280;47574;52.090;5.244;2023-03-03T07:25:20;102656.0;;;9.02;56.25
61676;BME280;47574;52.090;5.244;2023-03-03T07:27:10;102653.0;;;9.07;56.09
61676;BME280;47574;52.090;5.244;2023-03-03T07:30:29;102650.0;;;9.13;56.08
61676;BME280;47574;52.090;5.244;2023-03-03T07:32:18;102650.0;;;9.05;56.13
61676;BME280;47574;52.090;5.244;2023-03-03T07:33:58;102656.0;;;9.08;56.2
61676;BME280;47574;52.090;5.244;2023-03-03T07:35:37;102651.0;;;9.17;55.96
61676;BME280;47574;52.090;5.244;2023-03-03T07:39:20;102656.0;;;9.06;56.04
61676;BME280;47574;52.090;5.244;2023-03-03T07:41:09;102653.0;;;9.15;56.11
61676;BME280;47574;52.090;5.244;2023-03-03T07:42:46;102655.0;;;9.25;55.96
61676;BME280;47574;52.090;5.244;2023-03-03T07:44:28;102659.99999999999;;;9.27;55.83
61676;BME280;47574;52.090;5.244;2023-03-03T07:46:20;102655.0;;;9.17;56.1
61676;BME280;47574;52.090;5.244;2023-03-03T07:48:10;102659.99999999999;;;9.18;56.17
61676;BME280;47574;52.090;5.244;2023-03-03T07:51:37;102665.00000000001;;;9.16;56.17
61676;BME280;47574;52.090;5.244;2023-03-03T07:53:22;102670.0;;;9.21;56.13
61676;BME280;47574;52.090;5.244;2023-03-03T07:55:30;102673.0;;;9.31;56.03
61676;BME280;47574;52.090;5.244;2023-03-03T07:57:19;102681.0;;;9.28;56.07
61676;BME280;47574;52.090;5.244;2023-03-03T07:58:57;102684.99999999999;;;9.39;55.75
61676;BME280;47574;52.090;5.244;2023-03-03T08:01:37;102683.0;;;9.23;56.23
61676;BME280;47574;52.090;5.244;2023-03-03T08:03:16;102689.00000000001;;;9.23;56.2
61676;BME280;47574;52.090;5.244;2023-03-03T08:04:53;102689.00000000001;;;9.35;55.99
61676;BME280;47574;52.090;5.244;2023-03-03T08:08:27;102690.00000000001;;;9.15;56.45
61676;BME280;47574;52.090;5.244;2023-03-03T08:10:28;102688.00000000001;;;9.21;56.55
61676;BME280;47574;52.090;5.244;2023-03-03T08:12:21;102691.00000000001;;;9.34;56.42
61676;BME280;47574;52.090;5.244;2023-03-03T08:14:15;102692.0;;;9.47;56.18
61676;BME280;47574;52.090;5.244;2023-03-03T08:15:56;102696.0;;;9.39;56.12
61676;BME280;47574;52.090;5.244;2023-03-03T08:17:38;102692.0;;;9.41;56.16
61676;BME280;47574;52.090;5.244;2023-03-03T08:20:55;102696.0;;;9.48;56.03
61676;BME280;47574;52.090;5.244;2023-03-03T08:22:34;102701.0;;;9.58;55.79
61676;BME280;47574;52.090;5.244;2023-03-03T08:24:10;102702.0;;;9.48;56.06
61676;BME280;47574;52.090;5.244;2023-03-03T08:25:48;102705.0;;;9.56;55.75
61676;BME280;47574;52.090;5.244;2023-03-03T08:29:00;102705.0;;;9.53;55.8
61676;BME280;47574;52.090;5.244;2023-03-03T08:30:37;102707.0;;;9.57;55.75
61676;BME280;47574;52.090;5.244;2023-03-03T08:32:13;102713.00000000001;;;9.64;55.63
61676;BME280;47574;52.090;5.244;2023-03-03T08:35:27;102711.99999999999;;;9.66;55.52
61676;BME280;47574;52.090;5.244;2023-03-03T08:37:03;102711.99999999999;;;9.68;55.59
61676;BME280;47574;52.090;5.244;2023-03-03T08:38:39;102711.99999999999;;;9.53;56.02
61676;BME280;47574;52.090;5.244;2023-03-03T08:40:16;102711.99999999999;;;9.68;55.65
61676;BME280;47574;52.090;5.244;2023-03-03T08:43:29;102708.0;;;9.65;55.45
61676;BME280;47574;52.090;5.244;2023-03-03T08:45:05;102708.0;;;9.75;55.28
61676;BME280;47574;52.090;5.244;2023-03-03T08:46:42;102711.99999999999;;;9.89;55.01
61676;BME280;47574;52.090;5.244;2023-03-03T08:49:56;102709.99999999999;;;10.03;54.65
61676;BME280;47574;52.090;5.244;2023-03-03T08:51:32;102707.0;;;9.89;54.83
61676;BME280;47574;52.090;5.244;2023-03-03T08:53:09;102707.0;;;9.91;54.94
61676;BME280;47574;52.090;5.244;2023-03-03T08:56:22;102711.99999999999;;;9.96;54.89
61676;BME280;47574;52.090;5.244;2023-03-03T08:57:58;102711.99999999999;;;9.89;55.2
61676;BME280;47574;52.090;5.244;2023-03-03T08:59:34;102711.99999999999;;;9.86;55.26
61676;BME280;47574;52.090;5.244;2023-03-03T09:01:10;102715.00000000001;;;9.99;55.02
61676;BME280;47574;52.090;5.244;2023-03-03T09:04:23;102718.0;;;10.16;54.61
61676;BME280;47574;52.090;5.244;2023-03-03T09:05:59;102724.0;;;10.34;54.08
61676;BME280;47574;52.090;5.244;2023-03-03T09:07:35;102721.0;;;10.16;54.3
61676;BME280;47574;52.090;5.244;2023-03-03T09:10:49;102724.0;;;10.17;54.27
61676;BME280;47574;52.090;5.244;2023-03-03T09:12:29;102719.0;;;10.18;54.3
61676;BME280;47574;52.090;5.244;2023-03-03T09:14:10;102717.0;;;10.0;54.4
61676;BME280;47574;52.090;5.244;2023-03-03T09:15:46;102713.00000000001;;;10.0;54.69
61676;BME280;47574;52.090;5.244;2023-03-03T09:19:21;102715.00000000001;;;10.23;54.2
61676;BME280;47574;52.090;5.244;2023-03-03T09:20:59;102714.00000000001;;;10.33;53.94
61676;BME280;47574;52.090;5.244;2023-03-03T09:22:36;102714.00000000001;;;10.54;53.51
61676;BME280;47574;52.090;5.244;2023-03-03T09:24:22;102714.00000000001;;;10.61;53.32
61676;BME280;47574;52.090;5.244;2023-03-03T09:28:18;102714.00000000001;;;10.59;53.17
61676;BME280;47574;52.090;5.244;2023-03-03T09:30:00;102717.0;;;10.55;53.31
61676;BME280;47574;52.090;5.244;2023-03-03T09:31:39;102717.0;;;10.7;53.21
61676;BME280;47574;52.090;5.244;2023-03-03T09:33:23;102716.00000000001;;;10.79;52.84
61676;BME280;47574;52.090;5.244;2023-03-03T09:35:30;102713.00000000001;;;10.46;53.39
61676;BME280;47574;52.090;5.244;2023-03-03T09:37:19;102717.0;;;10.56;53.15
61676;BME280;47574;52.090;5.244;2023-03-03T09:38:57;102720.0;;;10.7;52.68
61676;BME280;47574;52.090;5.244;2023-03-03T09:43:02;102717.0;;;10.44;52.8
61676;BME280;47574;52.090;5.244;2023-03-03T09:45:37;102717.0;;;10.44;53.1
61676;BME280;47574;52.090;5.244;2023-03-03T09:47:55;102722.0;;;10.86;52.14
61676;BME280;47574;52.090;5.244;2023-03-03T09:49:44;102723.0;;;10.85;52.11
61676;BME280;47574;52.090;5.244;2023-03-03T09:51:40;102721.0;;;10.73;52.55
61676;BME280;47574;52.090;5.244;2023-03-03T09:53:59;102728.0;;;10.79;52.43
61676;BME280;47574;52.090;5.244;2023-03-03T09:55:57;102721.0;;;10.6;52.61
61676;BME280;47574;52.090;5.244;2023-03-03T09:57:53;102727.0;;;10.69;52.61
61676;BME280;47574;52.090;5.244;2023-03-03T10:01:35;102727.0;;;10.85;52.21
61676;BME280;47574;52.090;5.244;2023-03-03T10:04:36;102727.0;;;10.91;51.81
61676;BME280;47574;52.090;5.244;2023-03-03T10:06:50;102728.0;;;11.01;51.83
61676;BME280;47574;52.090;5.244;2023-03-03T10:08:47;102728.0;;;11.05;52.0
61676;BME280;47574;52.090;5.244;2023-03-03T10:11:10;102731.0;;;11.03;51.82
61676;BME280;47574;52.090;5.244;2023-03-03T10:13:00;102728.0;;;10.92;51.71
61676;BME280;47574;52.090;5.244;2023-03-03T10:14:59;102730.0;;;10.94;51.58
61676;BME280;47574;52.090;5.244;2023-03-03T10:17:17;102733.99999999999;;;11.07;51.29
61676;BME280;47574;52.090;5.244;2023-03-03T10:19:02;102728.0;;;11.11;50.98
61676;BME280;47574;52.090;5.244;2023-03-03T10:20:51;102732.0;;;11.17;50.83
61676;BME280;47574;52.090;5.244;2023-03-03T10:24:27;102724.0;;;11.3;50.52
61676;BME280;47574;52.090;5.244;2023-03-03T10:26:16;102724.0;;;11.15;50.64
61676;BME280;47574;52.090;5.244;2023-03-03T10:28:09;102725.0;;;11.13;50.71
61676;BME280;47574;52.090;5.244;2023-03-03T10:29:59;102726.0;;;11.22;50.41
61676;BME280;47574;52.090;5.244;2023-03-03T10:31:50;102722.0;;;11.28;50.47
61676;BME280;47574;52.090;5.244;2023-03-03T10:33:44;102727.0;;;11.21;50.66
61676;BME280;47574;52.090;5.244;2023-03-03T10:35:32;102721.0;;;11.38;50.25
61676;BME280;47574;52.090;5.244;2023-03-03T10:39:09;102724.0;;;11.24;50.31
61676;BME280;47574;52.090;5.244;2023-03-03T10:41:07;102722.0;;;11.19;50.31
61676;BME280;47574;52.090;5.244;2023-03-03T10:43:04;102720.0;;;11.32;49.64
61676;BME280;47574;52.090;5.244;2023-03-03T10:44:55;102725.0;;;11.37;49.67
61676;BME280;47574;52.090;5.244;2023-03-03T10:46:53;102726.0;;;11.44;49.51
61676;BME280;47574;52.090;5.244;2023-03-03T10:48:43;102727.0;;;11.41;49.46
61676;BME280;47574;52.090;5.244;2023-03-03T10:50:33;102727.0;;;11.51;49.11
61676;BME280;47574;52.090;5.244;2023-03-03T10:52:23;102724.0;;;11.57;49.35
61676;BME280;47574;52.090;5.244;2023-03-03T10:54:18;102726.0;;;11.72;49.2
61676;BME280;47574;52.090;5.244;2023-03-03T10:58:26;102722.0;;;11.94;48.49
61676;BME280;47574;52.090;5.244;2023-03-03T11:00:20;102720.0;;;11.91;48.12
61676;BME280;47574;52.090;5.244;2023-03-03T11:02:02;102718.0;;;11.93;48.02
61676;BME280;47574;52.090;5.244;2023-03-03T11:04:02;102717.0;;;12.06;47.87